sensor_id;sensor_type;location;lat;lon;timestamp;P1;durP1;ratioP1;P2;durP2;ratioP2
61015;SDS011;46902;52.920;6.536;2023-03-04T00:01:41;21.77;;;2.92;;
61015;SDS011;46902;52.920;6.536;2023-03-04T00:04:07;17.10;;;2.45;;
61015;SDS011;46902;52.920;6.536;2023-03-04T00:06:32;14.07;;;2.45;;
61015;SDS011;46902;52.920;6.536;2023-03-04T00:08:58;15.93;;;2.80;;
61015;SDS011;46902;52.920;6.536;2023-03-04T00:11:24;12.65;;;2.78;;
61015;SDS011;46902;52.920;6.536;2023-03-04T00:13:49;19.88;;;3.42;;
61015;SDS011;46902;52.920;6.536;2023-03-04T00:16:15;17.20;;;2.58;;
61015;SDS011;46902;52.920;6.536;2023-03-04T00:18:41;11.63;;;2.28;;
61015;SDS011;46902;52.920;6.536;2023-03-04T00:21:06;15.20;;;1.98;;
61015;SDS011;46902;52.920;6.536;2023-03-04T00:23:32;15.25;;;2.10;;
61015;SDS011;46902;52.920;6.536;2023-03-04T00:25:58;16.33;;;2.38;;
61015;SDS011;46902;52.920;6.536;2023-03-04T00:28:23;15.98;;;2.60;;
61015;SDS011;46902;52.920;6.536;2023-03-04T00:30:49;18.65;;;2.60;;
61015;SDS011;46902;52.920;6.536;2023-03-04T00:33:14;15.88;;;2.83;;
61015;SDS011;46902;52.920;6.536;2023-03-04T00:35:40;22.95;;;2.97;;
61015;SDS011;46902;52.920;6.536;2023-03-04T00:38:06;16.45;;;3.00;;
61015;SDS011;46902;52.920;6.536;2023-03-04T00:40:32;27.88;;;4.00;;
61015;SDS011;46902;52.920;6.536;2023-03-04T00:42:57;17.92;;;2.80;;
61015;SDS011;46902;52.920;6.536;2023-03-04T00:45:23;12.63;;;2.42;;
61015;SDS011;46902;52.920;6.536;2023-03-04T00:47:49;16.42;;;3.20;;
61015;SDS011;46902;52.920;6.536;2023-03-04T00:50:14;19.42;;;2.70;;
61015;SDS011;46902;52.920;6.536;2023-03-04T00:52:40;17.70;;;3.42;;
61015;SDS011;46902;52.920;6.536;2023-03-04T00:55:06;16.38;;;3.13;;
61015;SDS011;46902;52.920;6.536;2023-03-04T00:57:32;15.65;;;2.60;;
61015;SDS011;46902;52.920;6.536;2023-03-04T00:59:59;18.08;;;2.25;;
61015;SDS011;46902;52.920;6.536;2023-03-04T01:02:25;17.52;;;3.50;;
61015;SDS011;46902;52.920;6.536;2023-03-04T01:04:50;20.67;;;3.45;;
61015;SDS011;46902;52.920;6.536;2023-03-04T01:07:16;17.02;;;2.53;;
61015;SDS011;46902;52.920;6.536;2023-03-04T01:09:42;19.25;;;2.88;;
61015;SDS011;46902;52.920;6.536;2023-03-04T01:12:07;16.08;;;2.38;;
61015;SDS011;46902;52.920;6.536;2023-03-04T01:14:33;16.48;;;2.33;;
61015;SDS011;46902;52.920;6.536;2023-03-04T01:16:59;14.75;;;2.30;;
61015;SDS011;46902;52.920;6.536;2023-03-04T01:19:24;18.00;;;2.40;;
61015;SDS011;46902;52.920;6.536;2023-03-04T01:21:50;14.80;;;2.33;;
61015;SDS011;46902;52.920;6.536;2023-03-04T01:24:16;21.60;;;2.78;;
61015;SDS011;46902;52.920;6.536;2023-03-04T01:26:41;18.60;;;2.50;;
61015;SDS011;46902;52.920;6.536;2023-03-04T01:29:07;19.38;;;2.20;;
61015;SDS011;46902;52.920;6.536;2023-03-04T01:31:33;12.40;;;2.10;;
61015;SDS011;46902;52.920;6.536;2023-03-04T01:33:58;15.55;;;2.33;;
61015;SDS011;46902;52.920;6.536;2023-03-04T01:36:24;17.15;;;2.63;;
61015;SDS011;46902;52.920;6.536;2023-03-04T01:38:49;16.02;;;2.80;;
61015;SDS011;46902;52.920;6.536;2023-03-04T01:41:16;14.88;;;2.30;;
61015;SDS011;46902;52.920;6.536;2023-03-04T01:43:47;18.45;;;2.53;;
61015;SDS011;46902;52.920;6.536;2023-03-04T01:46:12;11.63;;;2.20;;
61015;SDS011;46902;52.920;6.536;2023-03-04T01:48:39;15.70;;;2.47;;
61015;SDS011;46902;52.920;6.536;2023-03-04T01:51:05;16.00;;;2.53;;
61015;SDS011;46902;52.920;6.536;2023-03-04T01:53:36;20.85;;;2.55;;
61015;SDS011;46902;52.920;6.536;2023-03-04T01:56:04;11.57;;;2.15;;
61015;SDS011;46902;52.920;6.536;2023-03-04T01:59:09;16.25;;;2.30;;
61015;SDS011;46902;52.920;6.536;2023-03-04T02:01:35;13.05;;;2.45;;
61015;SDS011;46902;52.920;6.536;2023-03-04T02:04:01;15.13;;;2.28;;
61015;SDS011;46902;52.920;6.536;2023-03-04T02:06:27;14.98;;;2.30;;
61015;SDS011;46902;52.920;6.536;2023-03-04T02:08:53;14.90;;;2.67;;
61015;SDS011;46902;52.920;6.536;2023-03-04T02:11:19;17.02;;;2.25;;
61015;SDS011;46902;52.920;6.536;2023-03-04T02:13:45;18.95;;;2.38;;
61015;SDS011;46902;52.920;6.536;2023-03-04T02:16:10;16.92;;;2.42;;
61015;SDS011;46902;52.920;6.536;2023-03-04T02:18:36;11.13;;;2.13;;
61015;SDS011;46902;52.920;6.536;2023-03-04T02:26:20;13.80;;;2.15;;
61015;SDS011;46902;52.920;6.536;2023-03-04T02:28:50;14.68;;;2.05;;
61015;SDS011;46902;52.920;6.536;2023-03-04T02:34:02;19.05;;;2.75;;
61015;SDS011;46902;52.920;6.536;2023-03-04T02:36:50;21.52;;;2.25;;
61015;SDS011;46902;52.920;6.536;2023-03-04T02:42:00;14.77;;;2.33;;
61015;SDS011;46902;52.920;6.536;2023-03-04T02:44:31;13.23;;;2.28;;
61015;SDS011;46902;52.920;6.536;2023-03-04T02:47:02;13.63;;;2.10;;
61015;SDS011;46902;52.920;6.536;2023-03-04T02:49:30;19.27;;;2.70;;
61015;SDS011;46902;52.920;6.536;2023-03-04T02:56:57;17.25;;;3.22;;
61015;SDS011;46902;52.920;6.536;2023-03-04T02:59:26;16.63;;;2.65;;
61015;SDS011;46902;52.920;6.536;2023-03-04T03:01:52;17.10;;;2.55;;
61015;SDS011;46902;52.920;6.536;2023-03-04T03:04:18;18.80;;;3.00;;
61015;SDS011;46902;52.920;6.536;2023-03-04T03:06:45;19.65;;;2.40;;
61015;SDS011;46902;52.920;6.536;2023-03-04T03:09:11;19.30;;;2.70;;
61015;SDS011;46902;52.920;6.536;2023-03-04T03:11:37;13.50;;;3.05;;
61015;SDS011;46902;52.920;6.536;2023-03-04T03:14:03;12.75;;;2.53;;
61015;SDS011;46902;52.920;6.536;2023-03-04T03:16:29;15.02;;;2.58;;
61015;SDS011;46902;52.920;6.536;2023-03-04T03:18:54;18.02;;;2.63;;
61015;SDS011;46902;52.920;6.536;2023-03-04T03:21:20;16.15;;;2.85;;
61015;SDS011;46902;52.920;6.536;2023-03-04T03:23:46;16.55;;;2.22;;
61015;SDS011;46902;52.920;6.536;2023-03-04T03:26:11;12.25;;;2.20;;
61015;SDS011;46902;52.920;6.536;2023-03-04T03:28:37;14.05;;;2.53;;
61015;SDS011;46902;52.920;6.536;2023-03-04T03:31:03;13.18;;;1.70;;
61015;SDS011;46902;52.920;6.536;2023-03-04T03:33:29;14.98;;;2.25;;
61015;SDS011;46902;52.920;6.536;2023-03-04T03:35:54;14.60;;;2.50;;
61015;SDS011;46902;52.920;6.536;2023-03-04T03:38:20;13.30;;;2.03;;
61015;SDS011;46902;52.920;6.536;2023-03-04T03:40:45;9.75;;;2.20;;
61015;SDS011;46902;52.920;6.536;2023-03-04T03:43:11;16.92;;;2.92;;
61015;SDS011;46902;52.920;6.536;2023-03-04T03:45:37;14.68;;;2.22;;
61015;SDS011;46902;52.920;6.536;2023-03-04T03:48:02;11.07;;;1.95;;
61015;SDS011;46902;52.920;6.536;2023-03-04T03:50:28;15.95;;;2.45;;
61015;SDS011;46902;52.920;6.536;2023-03-04T03:52:54;16.42;;;2.80;;
61015;SDS011;46902;52.920;6.536;2023-03-04T03:55:20;14.13;;;2.20;;
61015;SDS011;46902;52.920;6.536;2023-03-04T03:57:46;16.20;;;3.17;;
61015;SDS011;46902;52.920;6.536;2023-03-04T04:00:12;12.25;;;1.98;;
61015;SDS011;46902;52.920;6.536;2023-03-04T04:02:38;15.73;;;2.45;;
61015;SDS011;46902;52.920;6.536;2023-03-04T04:05:05;19.38;;;2.67;;
61015;SDS011;46902;52.920;6.536;2023-03-04T04:07:31;11.63;;;1.73;;
61015;SDS011;46902;52.920;6.536;2023-03-04T04:09:57;11.68;;;2.05;;
61015;SDS011;46902;52.920;6.536;2023-03-04T04:12:22;14.48;;;2.85;;
61015;SDS011;46902;52.920;6.536;2023-03-04T04:14:48;12.90;;;3.33;;
61015;SDS011;46902;52.920;6.536;2023-03-04T04:17:13;15.63;;;2.13;;
61015;SDS011;46902;52.920;6.536;2023-03-04T04:19:39;12.85;;;2.17;;
61015;SDS011;46902;52.920;6.536;2023-03-04T04:22:06;15.52;;;2.50;;
61015;SDS011;46902;52.920;6.536;2023-03-04T04:24:36;17.50;;;3.30;;
61015;SDS011;46902;52.920;6.536;2023-03-04T04:27:02;13.55;;;2.22;;
61015;SDS011;46902;52.920;6.536;2023-03-04T04:29:28;11.93;;;2.08;;
61015;SDS011;46902;52.920;6.536;2023-03-04T04:31:54;15.68;;;1.92;;
61015;SDS011;46902;52.920;6.536;2023-03-04T04:34:19;10.45;;;1.95;;
61015;SDS011;46902;52.920;6.536;2023-03-04T04:36:45;14.70;;;2.30;;
61015;SDS011;46902;52.920;6.536;2023-03-04T04:39:11;13.10;;;2.50;;
61015;SDS011;46902;52.920;6.536;2023-03-04T04:41:38;15.07;;;2.03;;
61015;SDS011;46902;52.920;6.536;2023-03-04T04:44:05;13.43;;;2.10;;
61015;SDS011;46902;52.920;6.536;2023-03-04T04:46:31;14.82;;;1.88;;
61015;SDS011;46902;52.920;6.536;2023-03-04T04:48:57;11.02;;;1.75;;
61015;SDS011;46902;52.920;6.536;2023-03-04T04:51:22;14.23;;;1.90;;
61015;SDS011;46902;52.920;6.536;2023-03-04T04:53:48;15.02;;;1.75;;
61015;SDS011;46902;52.920;6.536;2023-03-04T04:56:15;17.73;;;2.03;;
61015;SDS011;46902;52.920;6.536;2023-03-04T04:58:43;12.07;;;2.45;;
61015;SDS011;46902;52.920;6.536;2023-03-04T05:01:09;11.02;;;2.03;;
61015;SDS011;46902;52.920;6.536;2023-03-04T05:03:35;15.35;;;2.20;;
61015;SDS011;46902;52.920;6.536;2023-03-04T05:06:02;15.07;;;1.90;;
61015;SDS011;46902;52.920;6.536;2023-03-04T05:08:29;11.68;;;1.95;;
61015;SDS011;46902;52.920;6.536;2023-03-04T05:10:55;16.92;;;2.25;;
61015;SDS011;46902;52.920;6.536;2023-03-04T05:13:21;14.68;;;3.35;;
61015;SDS011;46902;52.920;6.536;2023-03-04T05:15:47;15.15;;;2.53;;
61015;SDS011;46902;52.920;6.536;2023-03-04T05:18:16;16.90;;;1.90;;
61015;SDS011;46902;52.920;6.536;2023-03-04T05:20:41;14.90;;;2.08;;
61015;SDS011;46902;52.920;6.536;2023-03-04T05:23:07;16.15;;;2.92;;
61015;SDS011;46902;52.920;6.536;2023-03-04T05:25:32;14.48;;;2.03;;
61015;SDS011;46902;52.920;6.536;2023-03-04T05:27:58;13.80;;;2.15;;
61015;SDS011;46902;52.920;6.536;2023-03-04T05:30:25;13.75;;;2.50;;
61015;SDS011;46902;52.920;6.536;2023-03-04T05:32:51;13.48;;;1.98;;
61015;SDS011;46902;52.920;6.536;2023-03-04T05:35:17;12.82;;;2.10;;
61015;SDS011;46902;52.920;6.536;2023-03-04T05:37:43;11.50;;;1.83;;
61015;SDS011;46902;52.920;6.536;2023-03-04T05:40:09;12.23;;;2.00;;
61015;SDS011;46902;52.920;6.536;2023-03-04T05:42:35;11.68;;;2.80;;
61015;SDS011;46902;52.920;6.536;2023-03-04T05:45:00;15.30;;;1.98;;
61015;SDS011;46902;52.920;6.536;2023-03-04T05:47:26;12.13;;;2.10;;
61015;SDS011;46902;52.920;6.536;2023-03-04T05:49:52;12.38;;;1.77;;
61015;SDS011;46902;52.920;6.536;2023-03-04T05:52:18;9.90;;;1.67;;
61015;SDS011;46902;52.920;6.536;2023-03-04T05:54:44;13.85;;;1.67;;
61015;SDS011;46902;52.920;6.536;2023-03-04T05:57:09;14.35;;;1.60;;
61015;SDS011;46902;52.920;6.536;2023-03-04T05:59:35;11.13;;;1.70;;
61015;SDS011;46902;52.920;6.536;2023-03-04T06:02:01;11.93;;;2.00;;
61015;SDS011;46902;52.920;6.536;2023-03-04T06:04:26;11.32;;;1.60;;
61015;SDS011;46902;52.920;6.536;2023-03-04T06:06:52;11.18;;;1.40;;
61015;SDS011;46902;52.920;6.536;2023-03-04T06:09:18;8.25;;;1.20;;
61015;SDS011;46902;52.920;6.536;2023-03-04T06:11:45;16.63;;;2.13;;
61015;SDS011;46902;52.920;6.536;2023-03-04T06:14:11;9.65;;;1.17;;
61015;SDS011;46902;52.920;6.536;2023-03-04T06:16:36;7.68;;;1.42;;
61015;SDS011;46902;52.920;6.536;2023-03-04T06:19:02;7.40;;;1.17;;
61015;SDS011;46902;52.920;6.536;2023-03-04T06:21:27;6.97;;;1.42;;
61015;SDS011;46902;52.920;6.536;2023-03-04T06:23:53;8.73;;;1.60;;
61015;SDS011;46902;52.920;6.536;2023-03-04T06:26:21;5.38;;;0.80;;
61015;SDS011;46902;52.920;6.536;2023-03-04T06:28:47;11.45;;;1.83;;
61015;SDS011;46902;52.920;6.536;2023-03-04T06:31:12;7.40;;;1.20;;
61015;SDS011;46902;52.920;6.536;2023-03-04T06:33:38;12.63;;;1.23;;
61015;SDS011;46902;52.920;6.536;2023-03-04T06:36:03;12.43;;;1.85;;
61015;SDS011;46902;52.920;6.536;2023-03-04T06:38:29;9.85;;;1.42;;
61015;SDS011;46902;52.920;6.536;2023-03-04T06:40:55;10.77;;;1.25;;
61015;SDS011;46902;52.920;6.536;2023-03-04T06:43:21;10.48;;;1.30;;
61015;SDS011;46902;52.920;6.536;2023-03-04T06:45:46;11.77;;;1.25;;
61015;SDS011;46902;52.920;6.536;2023-03-04T06:48:12;10.90;;;1.33;;
61015;SDS011;46902;52.920;6.536;2023-03-04T06:50:38;11.43;;;1.75;;
61015;SDS011;46902;52.920;6.536;2023-03-04T06:53:04;11.15;;;1.45;;
61015;SDS011;46902;52.920;6.536;2023-03-04T06:55:30;8.52;;;1.75;;
61015;SDS011;46902;52.920;6.536;2023-03-04T06:57:55;10.15;;;1.27;;
61015;SDS011;46902;52.920;6.536;2023-03-04T07:00:21;7.70;;;1.30;;
61015;SDS011;46902;52.920;6.536;2023-03-04T07:02:48;9.23;;;1.15;;
61015;SDS011;46902;52.920;6.536;2023-03-04T07:05:14;6.38;;;1.08;;
61015;SDS011;46902;52.920;6.536;2023-03-04T07:07:39;8.10;;;1.30;;
61015;SDS011;46902;52.920;6.536;2023-03-04T07:10:05;10.23;;;1.45;;
61015;SDS011;46902;52.920;6.536;2023-03-04T07:12:32;9.85;;;1.77;;
61015;SDS011;46902;52.920;6.536;2023-03-04T07:14:57;6.40;;;1.85;;
61015;SDS011;46902;52.920;6.536;2023-03-04T07:17:23;13.25;;;1.40;;
61015;SDS011;46902;52.920;6.536;2023-03-04T07:19:48;10.98;;;2.15;;
61015;SDS011;46902;52.920;6.536;2023-03-04T07:22:14;8.80;;;1.17;;
61015;SDS011;46902;52.920;6.536;2023-03-04T07:24:40;6.63;;;1.05;;
61015;SDS011;46902;52.920;6.536;2023-03-04T07:27:05;12.73;;;2.15;;
61015;SDS011;46902;52.920;6.536;2023-03-04T07:29:31;6.63;;;1.40;;
61015;SDS011;46902;52.920;6.536;2023-03-04T07:31:56;9.77;;;1.65;;
61015;SDS011;46902;52.920;6.536;2023-03-04T07:34:22;10.05;;;1.67;;
61015;SDS011;46902;52.920;6.536;2023-03-04T07:36:48;8.43;;;1.40;;
61015;SDS011;46902;52.920;6.536;2023-03-04T07:39:13;10.98;;;1.48;;
61015;SDS011;46902;52.920;6.536;2023-03-04T07:41:39;8.65;;;1.38;;
61015;SDS011;46902;52.920;6.536;2023-03-04T07:44:05;9.35;;;1.67;;
61015;SDS011;46902;52.920;6.536;2023-03-04T07:46:33;9.02;;;1.85;;
61015;SDS011;46902;52.920;6.536;2023-03-04T07:48:59;9.45;;;1.20;;
61015;SDS011;46902;52.920;6.536;2023-03-04T07:51:25;9.82;;;1.50;;
61015;SDS011;46902;52.920;6.536;2023-03-04T07:53:52;9.32;;;1.58;;
61015;SDS011;46902;52.920;6.536;2023-03-04T07:56:22;9.20;;;1.45;;
61015;SDS011;46902;52.920;6.536;2023-03-04T07:58:49;8.70;;;2.00;;
61015;SDS011;46902;52.920;6.536;2023-03-04T08:01:20;13.15;;;1.75;;
61015;SDS011;46902;52.920;6.536;2023-03-04T08:03:47;11.48;;;1.60;;
61015;SDS011;46902;52.920;6.536;2023-03-04T08:06:14;7.93;;;1.30;;
61015;SDS011;46902;52.920;6.536;2023-03-04T08:08:41;9.15;;;1.73;;
61015;SDS011;46902;52.920;6.536;2023-03-04T08:11:08;11.13;;;1.65;;
61015;SDS011;46902;52.920;6.536;2023-03-04T08:13:36;11.10;;;1.50;;
61015;SDS011;46902;52.920;6.536;2023-03-04T08:16:02;10.88;;;1.60;;
61015;SDS011;46902;52.920;6.536;2023-03-04T08:18:28;7.90;;;1.35;;
61015;SDS011;46902;52.920;6.536;2023-03-04T08:20:54;14.43;;;2.08;;
61015;SDS011;46902;52.920;6.536;2023-03-04T08:23:19;8.63;;;1.60;;
61015;SDS011;46902;52.920;6.536;2023-03-04T08:25:45;13.05;;;2.10;;
61015;SDS011;46902;52.920;6.536;2023-03-04T08:28:11;13.35;;;2.08;;
61015;SDS011;46902;52.920;6.536;2023-03-04T08:30:38;12.40;;;2.75;;
61015;SDS011;46902;52.920;6.536;2023-03-04T08:33:04;18.83;;;2.53;;
61015;SDS011;46902;52.920;6.536;2023-03-04T08:35:30;11.32;;;2.00;;
61015;SDS011;46902;52.920;6.536;2023-03-04T08:37:56;17.17;;;2.55;;
61015;SDS011;46902;52.920;6.536;2023-03-04T08:40:22;18.05;;;2.92;;
61015;SDS011;46902;52.920;6.536;2023-03-04T08:42:50;16.95;;;2.50;;
61015;SDS011;46902;52.920;6.536;2023-03-04T08:45:16;13.52;;;1.90;;
61015;SDS011;46902;52.920;6.536;2023-03-04T08:47:42;16.00;;;2.80;;
61015;SDS011;46902;52.920;6.536;2023-03-04T08:50:07;15.30;;;3.00;;
61015;SDS011;46902;52.920;6.536;2023-03-04T08:52:34;14.10;;;2.50;;
61015;SDS011;46902;52.920;6.536;2023-03-04T08:55:00;17.58;;;2.88;;
61015;SDS011;46902;52.920;6.536;2023-03-04T08:57:26;19.58;;;3.30;;
61015;SDS011;46902;52.920;6.536;2023-03-04T08:59:51;18.63;;;2.95;;
61015;SDS011;46902;52.920;6.536;2023-03-04T09:02:17;15.63;;;2.58;;
61015;SDS011;46902;52.920;6.536;2023-03-04T09:04:42;14.65;;;2.38;;
61015;SDS011;46902;52.920;6.536;2023-03-04T09:07:08;12.88;;;2.75;;
61015;SDS011;46902;52.920;6.536;2023-03-04T09:09:34;13.73;;;2.33;;
61015;SDS011;46902;52.920;6.536;2023-03-04T09:12:00;18.63;;;2.72;;
61015;SDS011;46902;52.920;6.536;2023-03-04T09:14:26;16.92;;;2.63;;
61015;SDS011;46902;52.920;6.536;2023-03-04T09:16:52;12.52;;;2.10;;
61015;SDS011;46902;52.920;6.536;2023-03-04T09:19:17;14.73;;;2.60;;
61015;SDS011;46902;52.920;6.536;2023-03-04T09:21:43;14.05;;;2.25;;
61015;SDS011;46902;52.920;6.536;2023-03-04T09:24:08;14.32;;;2.63;;
61015;SDS011;46902;52.920;6.536;2023-03-04T09:26:34;13.25;;;2.78;;
61015;SDS011;46902;52.920;6.536;2023-03-04T09:29:00;15.73;;;2.70;;
61015;SDS011;46902;52.920;6.536;2023-03-04T09:31:27;12.95;;;2.70;;
61015;SDS011;46902;52.920;6.536;2023-03-04T09:33:54;19.48;;;3.58;;
61015;SDS011;46902;52.920;6.536;2023-03-04T09:36:20;18.67;;;3.13;;
61015;SDS011;46902;52.920;6.536;2023-03-04T09:38:46;14.95;;;3.15;;
61015;SDS011;46902;52.920;6.536;2023-03-04T09:41:14;18.95;;;3.28;;
61015;SDS011;46902;52.920;6.536;2023-03-04T09:43:50;17.90;;;3.28;;
61015;SDS011;46902;52.920;6.536;2023-03-04T09:46:18;23.60;;;3.58;;
61015;SDS011;46902;52.920;6.536;2023-03-04T09:48:54;18.88;;;2.95;;
61015;SDS011;46902;52.920;6.536;2023-03-04T09:57:26;18.73;;;2.85;;
61015;SDS011;46902;52.920;6.536;2023-03-04T10:00:18;19.58;;;2.90;;
61015;SDS011;46902;52.920;6.536;2023-03-04T10:05:28;14.95;;;3.33;;
61015;SDS011;46902;52.920;6.536;2023-03-04T10:08:13;20.52;;;3.55;;
61015;SDS011;46902;52.920;6.536;2023-03-04T10:10:55;15.10;;;3.33;;
61015;SDS011;46902;52.920;6.536;2023-03-04T10:16:11;17.98;;;3.65;;
61015;SDS011;46902;52.920;6.536;2023-03-04T10:18:53;15.93;;;2.95;;
61015;SDS011;46902;52.920;6.536;2023-03-04T10:21:25;16.52;;;2.88;;
61015;SDS011;46902;52.920;6.536;2023-03-04T10:23:56;17.80;;;4.82;;
61015;SDS011;46902;52.920;6.536;2023-03-04T10:26:24;13.55;;;2.63;;
61015;SDS011;46902;52.920;6.536;2023-03-04T10:28:55;11.80;;;2.90;;
61015;SDS011;46902;52.920;6.536;2023-03-04T10:33:59;19.70;;;3.47;;
61015;SDS011;46902;52.920;6.536;2023-03-04T10:39:39;12.55;;;1.88;;
61015;SDS011;46902;52.920;6.536;2023-03-04T10:41:43;13.75;;;2.15;;
61015;SDS011;46902;52.920;6.536;2023-03-04T10:44:17;14.10;;;1.83;;
61015;SDS011;46902;52.920;6.536;2023-03-04T10:46:47;10.52;;;2.58;;
61015;SDS011;46902;52.920;6.536;2023-03-04T10:49:14;10.60;;;2.40;;
61015;SDS011;46902;52.920;6.536;2023-03-04T10:54:16;11.35;;;2.40;;
61015;SDS011;46902;52.920;6.536;2023-03-04T10:59:43;16.30;;;2.53;;
61015;SDS011;46902;52.920;6.536;2023-03-04T11:02:24;9.93;;;2.00;;
61015;SDS011;46902;52.920;6.536;2023-03-04T11:07:30;12.88;;;2.63;;
61015;SDS011;46902;52.920;6.536;2023-03-04T11:10:07;9.30;;;1.55;;
61015;SDS011;46902;52.920;6.536;2023-03-04T11:12:34;11.30;;;1.88;;
61015;SDS011;46902;52.920;6.536;2023-03-04T11:14:59;12.00;;;2.10;;
61015;SDS011;46902;52.920;6.536;2023-03-04T11:17:27;10.85;;;1.88;;
61015;SDS011;46902;52.920;6.536;2023-03-04T11:20:08;18.60;;;2.58;;
61015;SDS011;46902;52.920;6.536;2023-03-04T11:22:40;11.48;;;2.30;;
61015;SDS011;46902;52.920;6.536;2023-03-04T11:25:16;16.88;;;2.53;;
61015;SDS011;46902;52.920;6.536;2023-03-04T11:27:57;10.02;;;1.80;;
61015;SDS011;46902;52.920;6.536;2023-03-04T11:30:31;15.02;;;2.42;;
61015;SDS011;46902;52.920;6.536;2023-03-04T11:36:05;10.95;;;2.40;;
61015;SDS011;46902;52.920;6.536;2023-03-04T11:38:49;15.88;;;3.30;;
61015;SDS011;46902;52.920;6.536;2023-03-04T11:41:37;22.58;;;3.60;;
61015;SDS011;46902;52.920;6.536;2023-03-04T11:44:05;18.38;;;3.70;;
61015;SDS011;46902;52.920;6.536;2023-03-04T11:46:36;17.52;;;3.30;;
61015;SDS011;46902;52.920;6.536;2023-03-04T12:00:40;13.57;;;2.67;;
61015;SDS011;46902;52.920;6.536;2023-03-04T12:09:16;10.98;;;2.35;;
61015;SDS011;46902;52.920;6.536;2023-03-04T12:17:38;14.40;;;2.90;;
61015;SDS011;46902;52.920;6.536;2023-03-04T12:20:37;13.68;;;2.63;;
61015;SDS011;46902;52.920;6.536;2023-03-04T12:31:38;14.25;;;2.60;;
61015;SDS011;46902;52.920;6.536;2023-03-04T12:45:12;14.52;;;2.80;;
61015;SDS011;46902;52.920;6.536;2023-03-04T12:47:47;12.95;;;2.92;;
61015;SDS011;46902;52.920;6.536;2023-03-04T12:50:29;18.60;;;3.70;;
61015;SDS011;46902;52.920;6.536;2023-03-04T12:53:06;17.83;;;3.35;;
61015;SDS011;46902;52.920;6.536;2023-03-04T12:55:41;19.15;;;3.53;;
61015;SDS011;46902;52.920;6.536;2023-03-04T12:58:16;20.75;;;3.70;;
61015;SDS011;46902;52.920;6.536;2023-03-04T13:12:22;14.30;;;3.35;;
61015;SDS011;46902;52.920;6.536;2023-03-04T13:17:55;15.38;;;2.88;;
61015;SDS011;46902;52.920;6.536;2023-03-04T13:20:34;15.77;;;3.25;;
61015;SDS011;46902;52.920;6.536;2023-03-04T13:54:39;15.00;;;2.13;;
61015;SDS011;46902;52.920;6.536;2023-03-04T13:59:29;11.50;;;1.85;;
61015;SDS011;46902;52.920;6.536;2023-03-04T14:02:00;12.50;;;2.22;;
61015;SDS011;46902;52.920;6.536;2023-03-04T14:04:36;12.20;;;2.40;;
61015;SDS011;46902;52.920;6.536;2023-03-04T14:07:16;16.25;;;3.22;;
61015;SDS011;46902;52.920;6.536;2023-03-04T14:12:32;12.07;;;2.63;;
61015;SDS011;46902;52.920;6.536;2023-03-04T14:15:00;14.05;;;2.17;;
61015;SDS011;46902;52.920;6.536;2023-03-04T14:17:47;13.77;;;2.45;;
61015;SDS011;46902;52.920;6.536;2023-03-04T14:22:52;14.82;;;2.17;;
61015;SDS011;46902;52.920;6.536;2023-03-04T14:27:46;9.90;;;2.13;;
61015;SDS011;46902;52.920;6.536;2023-03-04T14:30:22;10.38;;;1.90;;
61015;SDS011;46902;52.920;6.536;2023-03-04T14:32:53;10.98;;;1.98;;
61015;SDS011;46902;52.920;6.536;2023-03-04T14:35:23;7.63;;;2.00;;
61015;SDS011;46902;52.920;6.536;2023-03-04T14:40:33;8.38;;;2.10;;
61015;SDS011;46902;52.920;6.536;2023-03-04T14:43:05;13.30;;;2.10;;
61015;SDS011;46902;52.920;6.536;2023-03-04T14:45:39;13.23;;;2.05;;
61015;SDS011;46902;52.920;6.536;2023-03-04T14:48:06;8.55;;;1.70;;
61015;SDS011;46902;52.920;6.536;2023-03-04T14:50:32;9.93;;;2.00;;
61015;SDS011;46902;52.920;6.536;2023-03-04T14:55:33;11.90;;;2.33;;
61015;SDS011;46902;52.920;6.536;2023-03-04T14:58:06;15.98;;;2.35;;
61015;SDS011;46902;52.920;6.536;2023-03-04T15:00:34;15.82;;;2.58;;
61015;SDS011;46902;52.920;6.536;2023-03-04T15:03:21;17.38;;;2.60;;
61015;SDS011;46902;52.920;6.536;2023-03-04T15:05:49;9.75;;;2.20;;
61015;SDS011;46902;52.920;6.536;2023-03-04T15:11:44;11.55;;;2.10;;
61015;SDS011;46902;52.920;6.536;2023-03-04T15:22:35;13.40;;;2.35;;
61015;SDS011;46902;52.920;6.536;2023-03-04T15:25:20;12.70;;;2.13;;
61015;SDS011;46902;52.920;6.536;2023-03-04T15:27:47;9.10;;;1.70;;
61015;SDS011;46902;52.920;6.536;2023-03-04T15:30:18;14.15;;;2.47;;
61015;SDS011;46902;52.920;6.536;2023-03-04T15:32:45;16.48;;;3.00;;
61015;SDS011;46902;52.920;6.536;2023-03-04T15:35:12;13.45;;;2.90;;
61015;SDS011;46902;52.920;6.536;2023-03-04T15:37:39;13.13;;;2.70;;
61015;SDS011;46902;52.920;6.536;2023-03-04T15:42:44;16.50;;;3.88;;
61015;SDS011;46902;52.920;6.536;2023-03-04T15:45:19;16.55;;;2.60;;
61015;SDS011;46902;52.920;6.536;2023-03-04T15:47:47;11.65;;;2.97;;
61015;SDS011;46902;52.920;6.536;2023-03-04T15:50:13;16.50;;;5.28;;
61015;SDS011;46902;52.920;6.536;2023-03-04T15:52:40;16.95;;;3.83;;
61015;SDS011;46902;52.920;6.536;2023-03-04T15:55:06;15.35;;;3.50;;
61015;SDS011;46902;52.920;6.536;2023-03-04T15:57:34;15.95;;;3.22;;
61015;SDS011;46902;52.920;6.536;2023-03-04T16:00:00;14.55;;;2.95;;
61015;SDS011;46902;52.920;6.536;2023-03-04T16:02:26;15.50;;;2.60;;
61015;SDS011;46902;52.920;6.536;2023-03-04T16:04:52;13.35;;;2.40;;
61015;SDS011;46902;52.920;6.536;2023-03-04T16:07:19;18.70;;;3.78;;
61015;SDS011;46902;52.920;6.536;2023-03-04T16:09:48;11.23;;;2.13;;
61015;SDS011;46902;52.920;6.536;2023-03-04T16:12:19;16.40;;;2.50;;
61015;SDS011;46902;52.920;6.536;2023-03-04T16:14:45;15.98;;;2.92;;
61015;SDS011;46902;52.920;6.536;2023-03-04T16:17:11;14.85;;;3.10;;
61015;SDS011;46902;52.920;6.536;2023-03-04T16:19:39;17.80;;;3.33;;
61015;SDS011;46902;52.920;6.536;2023-03-04T16:22:05;16.40;;;3.00;;
61015;SDS011;46902;52.920;6.536;2023-03-04T16:24:31;18.23;;;2.95;;
61015;SDS011;46902;52.920;6.536;2023-03-04T16:26:58;17.75;;;2.67;;
61015;SDS011;46902;52.920;6.536;2023-03-04T16:29:24;15.95;;;2.80;;
61015;SDS011;46902;52.920;6.536;2023-03-04T16:31:49;13.48;;;2.72;;
61015;SDS011;46902;52.920;6.536;2023-03-04T16:34:17;11.43;;;2.53;;
61015;SDS011;46902;52.920;6.536;2023-03-04T16:36:43;14.85;;;3.13;;
61015;SDS011;46902;52.920;6.536;2023-03-04T16:39:12;14.27;;;2.55;;
61015;SDS011;46902;52.920;6.536;2023-03-04T16:41:43;12.50;;;2.60;;
61015;SDS011;46902;52.920;6.536;2023-03-04T16:44:09;13.95;;;2.58;;
61015;SDS011;46902;52.920;6.536;2023-03-04T16:46:38;12.68;;;1.95;;
61015;SDS011;46902;52.920;6.536;2023-03-04T16:49:03;12.10;;;2.08;;
61015;SDS011;46902;52.920;6.536;2023-03-04T16:51:29;11.25;;;2.10;;
61015;SDS011;46902;52.920;6.536;2023-03-04T16:54:00;9.60;;;1.83;;
61015;SDS011;46902;52.920;6.536;2023-03-04T16:56:26;15.55;;;3.30;;
61015;SDS011;46902;52.920;6.536;2023-03-04T16:58:52;9.98;;;2.38;;
61015;SDS011;46902;52.920;6.536;2023-03-04T17:01:23;15.73;;;2.80;;
61015;SDS011;46902;52.920;6.536;2023-03-04T17:03:50;14.00;;;2.43;;
61015;SDS011;46902;52.920;6.536;2023-03-04T17:06:17;14.48;;;2.55;;
61015;SDS011;46902;52.920;6.536;2023-03-04T17:08:44;7.85;;;2.20;;
61015;SDS011;46902;52.920;6.536;2023-03-04T17:11:11;12.00;;;2.42;;
61015;SDS011;46902;52.920;6.536;2023-03-04T17:13:41;12.70;;;2.50;;
61015;SDS011;46902;52.920;6.536;2023-03-04T17:16:07;11.82;;;1.88;;
61015;SDS011;46902;52.920;6.536;2023-03-04T17:18:34;11.27;;;2.47;;
61015;SDS011;46902;52.920;6.536;2023-03-04T17:21:04;8.90;;;2.00;;
61015;SDS011;46902;52.920;6.536;2023-03-04T17:23:31;12.63;;;2.40;;